createdAt,value
2023-01-01T00:00:18.667Z,10.10
2023-01-01T00:02:45.628Z,10.30
2023-01-01T00:05:12.630Z,10.50
2023-01-01T00:07:39.594Z,10.50
2023-01-01T00:10:25.602Z,10.50
2023-01-01T00:12:52.646Z,10.50
2023-01-01T00:15:19.896Z,10.50
2023-01-01T00:17:46.912Z,10.50
2023-01-01T00:20:14.501Z,10.60
2023-01-01T00:22:54.572Z,10.60
2023-01-01T00:25:22.651Z,10.60
2023-01-01T00:27:49.919Z,10.60
2023-01-01T00:30:16.938Z,10.70
2023-01-01T00:32:55.245Z,10.90
2023-01-01T00:35:25.286Z,11.10
2023-01-01T00:37:52.964Z,11.20
2023-01-01T00:40:20.042Z,11.30
2023-01-01T00:42:47.018Z,11.40
2023-01-01T00:45:20.534Z,11.40
2023-01-01T00:47:48.132Z,11.30
2023-01-01T00:50:15.152Z,11.00
2023-01-01T00:52:42.235Z,10.80
2023-01-01T00:55:09.633Z,10.50
2023-01-01T00:57:36.676Z,10.20
2023-01-01T01:00:05.513Z,10.00
2023-01-01T01:02:32.642Z,9.70
2023-01-01T01:05:01.393Z,9.40
2023-01-01T01:07:28.415Z,9.20
2023-01-01T01:09:55.487Z,9.00
2023-01-01T01:12:22.404Z,8.90
2023-01-01T01:14:49.359Z,9.00
2023-01-01T01:17:16.355Z,8.90
2023-01-01T01:19:43.390Z,8.80
2023-01-01T01:22:10.371Z,8.80
2023-01-01T01:24:37.296Z,8.80
2023-01-01T01:27:04.296Z,8.70
2023-01-01T01:29:31.299Z,8.80
2023-01-01T01:31:58.229Z,8.70
2023-01-01T01:34:28.078Z,8.80
2023-01-01T01:36:55.950Z,8.80
2023-01-01T01:39:23.346Z,8.70
2023-01-01T01:41:50.340Z,8.80
2023-01-01T01:44:50.148Z,8.80
2023-01-01T01:47:34.953Z,8.80
2023-01-01T01:50:25.808Z,8.70
2023-01-01T01:53:02.469Z,8.60
2023-01-01T01:55:32.886Z,8.50
2023-01-01T01:58:00.462Z,8.40
2023-01-01T02:00:27.462Z,8.20
2023-01-01T02:02:59.867Z,8.20
2023-01-01T02:05:27.513Z,8.00
2023-01-01T02:07:55.488Z,8.00
2023-01-01T02:10:22.817Z,7.90
2023-01-01T02:12:50.055Z,7.80
2023-01-01T02:15:17.101Z,7.80
2023-01-01T02:17:56.185Z,7.80
2023-01-01T02:20:49.483Z,8.00
2023-01-01T02:23:43.385Z,8.00
2023-01-01T02:26:42.617Z,8.00
2023-01-01T02:29:21.576Z,7.90
2023-01-01T02:31:59.919Z,7.90
2023-01-01T02:34:41.683Z,7.80
2023-01-01T02:37:11.826Z,8.00
2023-01-01T02:39:43.594Z,8.20
2023-01-01T02:42:10.563Z,8.20
2023-01-01T02:44:41.755Z,8.20
2023-01-01T02:47:16.100Z,8.10
2023-01-01T02:49:54.066Z,8.00
2023-01-01T02:52:41.207Z,7.80
2023-01-01T02:55:33.720Z,7.90
2023-01-01T02:58:30.936Z,8.00
2023-01-01T03:01:05.136Z,7.90
2023-01-01T03:03:41.397Z,7.70
2023-01-01T03:06:23.122Z,7.60
2023-01-01T03:09:12.553Z,7.50
2023-01-01T03:11:51.212Z,7.50
2023-01-01T03:14:28.359Z,7.40
2023-01-01T03:17:09.933Z,7.30
2023-01-01T03:19:42.000Z,7.30
2023-01-01T03:22:12.779Z,7.20
2023-01-01T03:24:45.498Z,7.30
2023-01-01T03:27:31.468Z,7.50
2023-01-01T03:30:02.858Z,7.80
2023-01-01T03:32:55.516Z,8.00
2023-01-01T03:35:25.612Z,8.10
2023-01-01T03:37:56.108Z,8.20
2023-01-01T03:40:24.421Z,8.20
2023-01-01T03:43:02.882Z,8.00
2023-01-01T03:45:42.519Z,8.00
2023-01-01T03:48:10.784Z,7.90
2023-01-01T03:50:46.341Z,7.80
2023-01-01T03:53:25.557Z,7.50
2023-01-01T03:56:19.542Z,7.40
2023-01-01T03:59:00.896Z,7.10
2023-01-01T04:01:33.875Z,7.00
2023-01-01T04:04:03.923Z,6.90
2023-01-01T04:06:33.283Z,6.90
2023-01-01T04:09:03.090Z,7.00
2023-01-01T04:11:51.501Z,7.00
2023-01-01T04:14:50.636Z,6.90
2023-01-01T04:17:17.676Z,6.80
2023-01-01T04:19:48.762Z,7.00
2023-01-01T04:22:20.152Z,7.00
2023-01-01T04:24:47.116Z,7.00
2023-01-01T04:27:14.116Z,6.90
2023-01-01T04:29:41.925Z,7.00
2023-01-01T04:32:08.929Z,7.00
2023-01-01T04:34:35.896Z,7.10
2023-01-01T04:37:05.835Z,7.10
2023-01-01T04:39:36.724Z,7.00
2023-01-01T04:42:03.822Z,6.80
2023-01-01T04:44:30.877Z,6.80
2023-01-01T04:47:00.183Z,6.70
2023-01-01T04:49:27.766Z,6.60
2023-01-01T04:51:54.704Z,6.50
2023-01-01T04:54:21.802Z,6.60
2023-01-01T04:56:48.844Z,6.50
2023-01-01T04:59:15.813Z,6.60
2023-01-01T05:01:42.881Z,6.70
2023-01-01T05:04:13.470Z,6.60
2023-01-01T05:06:40.587Z,6.60
2023-01-01T05:09:10.006Z,6.50
2023-01-01T05:11:37.305Z,6.40
2023-01-01T05:14:05.060Z,6.20
2023-01-01T05:16:34.929Z,6.10
2023-01-01T05:19:02.403Z,6.10
2023-01-01T05:21:32.153Z,6.10
2023-01-01T05:24:08.049Z,6.10
2023-01-01T05:26:37.797Z,6.10
2023-01-01T05:29:10.322Z,6.10
2023-01-01T05:31:42.591Z,6.10
2023-01-01T05:34:09.652Z,6.20
2023-01-01T05:36:39.206Z,6.30
2023-01-01T05:39:12.256Z,6.30
2023-01-01T05:41:40.352Z,6.40
2023-01-01T05:44:09.245Z,6.50
2023-01-01T05:46:36.880Z,6.50
2023-01-01T05:49:04.335Z,6.50
2023-01-01T05:53:58.869Z,6.70
2023-01-01T05:56:26.891Z,6.60
2023-01-01T05:58:54.244Z,6.50
2023-01-01T06:01:24.084Z,6.50
2023-01-01T06:03:52.255Z,6.60
2023-01-01T06:06:22.143Z,6.50
2023-01-01T06:08:54.561Z,6.60
2023-01-01T06:11:21.854Z,6.60
2023-01-01T06:13:51.592Z,6.50
2023-01-01T06:16:18.685Z,6.50
2023-01-01T06:18:45.691Z,6.40
2023-01-01T06:21:21.042Z,6.60
2023-01-01T06:23:48.485Z,6.80
2023-01-01T06:26:21.209Z,6.90
2023-01-01T06:28:49.129Z,7.00
2023-01-01T06:31:18.360Z,7.00
2023-01-01T06:33:46.072Z,7.10
2023-01-01T06:36:15.928Z,7.30
2023-01-01T06:38:45.736Z,7.30
2023-01-01T06:41:15.591Z,7.30
2023-01-01T06:43:42.638Z,7.50
2023-01-01T06:46:19.029Z,7.60
2023-01-01T06:48:47.760Z,7.70
2023-01-01T06:51:17.297Z,8.00
2023-01-01T06:53:44.481Z,8.00
2023-01-01T06:56:11.559Z,8.20
2023-01-01T06:58:38.560Z,8.10
2023-01-01T07:01:14.347Z,8.00
2023-01-01T07:03:42.782Z,8.00
2023-01-01T07:06:11.001Z,8.00
2023-01-01T07:08:38.220Z,7.90
2023-01-01T07:11:05.348Z,7.90
2023-01-01T07:13:32.668Z,8.00
2023-01-01T07:15:59.844Z,8.00
2023-01-01T07:18:26.967Z,8.00
2023-01-01T07:21:22.225Z,8.00
2023-01-01T07:23:57.829Z,8.00
2023-01-01T07:26:26.574Z,7.90
2023-01-01T07:28:53.750Z,8.10
2023-01-01T07:31:20.896Z,8.00
2023-01-01T07:33:48.094Z,8.00
2023-01-01T07:36:15.291Z,8.10
2023-01-01T07:38:42.318Z,8.10
2023-01-01T07:41:09.309Z,8.10
2023-01-01T07:43:36.303Z,8.20
2023-01-01T07:46:04.064Z,8.20
2023-01-01T07:48:37.870Z,8.30
2023-01-01T07:51:06.880Z,8.40
2023-01-01T07:53:34.073Z,8.50
2023-01-01T07:56:01.075Z,8.50
2023-01-01T07:58:28.045Z,8.70
2023-01-01T08:00:55.011Z,8.80
2023-01-01T08:03:22.047Z,8.90
2023-01-01T08:05:49.043Z,9.00
2023-01-01T08:08:16.098Z,9.30
2023-01-01T08:10:43.055Z,9.50
2023-01-01T08:13:10.309Z,9.70
2023-01-01T08:15:37.573Z,9.90
2023-01-01T08:18:05.821Z,10.30
2023-01-01T08:20:33.986Z,10.60
2023-01-01T08:23:06.765Z,11.00
2023-01-01T08:25:35.015Z,11.30
2023-01-01T08:28:02.060Z,11.70
2023-01-01T08:30:29.066Z,12.10
2023-01-01T08:32:56.097Z,12.20
2023-01-01T08:35:23.079Z,12.40
2023-01-01T08:37:50.030Z,12.60
2023-01-01T08:40:17.004Z,12.80
2023-01-01T08:42:43.932Z,12.60
2023-01-01T08:45:11.210Z,12.30
2023-01-01T08:47:38.157Z,12.30
2023-01-01T08:50:05.894Z,12.10
2023-01-01T08:52:32.936Z,11.70
2023-01-01T08:55:01.060Z,11.40
2023-01-01T08:57:31.760Z,11.20
2023-01-01T08:59:58.859Z,11.20
2023-01-01T09:02:26.119Z,11.00
2023-01-01T09:04:53.225Z,11.10
2023-01-01T09:07:20.175Z,11.10
2023-01-01T09:09:47.257Z,11.10
2023-01-01T09:12:16.982Z,11.00
2023-01-01T09:14:46.878Z,11.00
2023-01-01T09:17:13.828Z,11.00
2023-01-01T09:19:40.944Z,11.20
2023-01-01T09:22:12.082Z,11.20
2023-01-01T09:24:39.147Z,11.30
2023-01-01T09:27:06.188Z,11.50
2023-01-01T09:29:33.140Z,11.60
2023-01-01T09:32:00.340Z,11.70
2023-01-01T09:34:28.035Z,11.70
2023-01-01T09:36:55.004Z,12.00
2023-01-01T09:39:21.994Z,12.10
2023-01-01T09:42:27.021Z,12.20
2023-01-01T09:44:56.970Z,12.00
2023-01-01T09:47:39.373Z,11.90
2023-01-01T09:50:20.529Z,11.80
2023-01-01T09:53:10.117Z,11.50
2023-01-01T09:56:03.047Z,11.60
2023-01-01T09:58:35.279Z,11.80
2023-01-01T10:01:26.650Z,11.90
2023-01-01T10:04:11.767Z,11.80
2023-01-01T10:07:03.717Z,12.00
2023-01-01T10:09:50.149Z,12.00
2023-01-01T10:12:47.103Z,12.10
2023-01-01T10:15:18.713Z,12.20
2023-01-01T10:17:48.719Z,12.30
2023-01-01T10:20:21.447Z,12.50
2023-01-01T10:22:57.658Z,12.40
2023-01-01T10:25:30.807Z,12.30
2023-01-01T10:28:02.285Z,12.30
2023-01-01T10:30:30.689Z,12.30
2023-01-01T10:32:58.452Z,12.50
2023-01-01T10:35:39.630Z,12.70
2023-01-01T10:38:06.867Z,12.80
2023-01-01T10:40:34.433Z,12.90
2023-01-01T10:43:04.099Z,12.90
2023-01-01T10:45:32.707Z,12.70
2023-01-01T10:48:24.344Z,12.90
2023-01-01T10:50:56.177Z,13.20
2023-01-01T10:53:27.717Z,13.10
2023-01-01T10:56:06.398Z,13.30
2023-01-01T10:58:47.227Z,13.50
2023-01-01T11:01:22.621Z,13.30
2023-01-01T11:04:09.399Z,13.20
2023-01-01T11:06:46.744Z,13.40
2023-01-01T11:09:20.925Z,13.30
2023-01-01T11:11:48.831Z,13.30
2023-01-01T11:14:46.975Z,13.30
2023-01-01T11:17:22.202Z,13.30
2023-01-01T11:19:52.799Z,13.20
2023-01-01T11:22:36.420Z,13.30
2023-01-01T11:25:05.758Z,13.20
2023-01-01T11:27:32.719Z,13.30
2023-01-01T11:30:28.671Z,13.30
2023-01-01T11:33:01.482Z,13.30
2023-01-01T11:35:31.802Z,13.30
2023-01-01T11:37:59.503Z,13.30
2023-01-01T11:40:37.346Z,13.30
2023-01-01T11:43:07.064Z,13.60
2023-01-01T11:45:39.702Z,13.70
2023-01-01T11:48:17.803Z,13.90
2023-01-01T11:51:28.636Z,13.90
2023-01-01T11:54:24.326Z,14.20
2023-01-01T11:57:00.765Z,14.50
2023-01-01T11:59:37.256Z,15.00
2023-01-01T12:02:05.148Z,15.50
2023-01-01T12:04:50.491Z,15.50
2023-01-01T12:10:31.390Z,15.30
2023-01-01T12:13:06.089Z,15.60
2023-01-01T12:15:47.008Z,15.70
2023-01-01T12:18:24.866Z,15.70
2023-01-01T12:21:08.670Z,15.50
2023-01-01T12:23:36.497Z,15.50
2023-01-01T12:26:09.507Z,15.60
2023-01-01T12:28:48.122Z,15.80
2023-01-01T12:31:39.660Z,15.70
2023-01-01T12:34:27.686Z,15.20
2023-01-01T12:37:17.234Z,15.10
2023-01-01T12:40:25.784Z,14.90
2023-01-01T12:42:55.536Z,14.60
2023-01-01T12:46:12.128Z,14.40
2023-01-01T12:48:42.132Z,14.10
2023-01-01T12:51:31.214Z,14.10
2023-01-01T12:54:10.146Z,14.10
2023-01-01T12:57:03.347Z,14.10
2023-01-01T12:59:34.658Z,14.10
2023-01-01T13:02:04.168Z,14.10
2023-01-01T13:04:31.208Z,14.00
2023-01-01T13:07:05.905Z,14.00
2023-01-01T13:09:45.490Z,14.00
2023-01-01T13:12:15.768Z,14.00
2023-01-01T13:14:45.028Z,14.20
2023-01-01T13:17:30.582Z,14.10
2023-01-01T13:20:00.576Z,14.10
2023-01-01T13:22:27.506Z,14.10
2023-01-01T13:25:06.274Z,14.10
2023-01-01T13:27:59.594Z,14.10
2023-01-01T13:30:44.371Z,14.10
2023-01-01T13:33:36.980Z,14.00
2023-01-01T13:36:09.926Z,14.00
2023-01-01T13:38:52.753Z,13.90
2023-01-01T13:41:43.526Z,14.00
2023-01-01T13:44:10.422Z,14.00
2023-01-01T13:46:52.437Z,14.00
2023-01-01T13:49:59.432Z,14.00
2023-01-01T13:52:26.345Z,13.90
2023-01-01T13:55:24.372Z,13.90
2023-01-01T13:58:10.248Z,13.80
2023-01-01T14:00:55.453Z,13.80
2023-01-01T14:03:24.711Z,13.80
2023-01-01T14:05:59.495Z,13.80
2023-01-01T14:08:31.417Z,13.70
2023-01-01T14:11:00.841Z,13.70
2023-01-01T14:13:32.420Z,13.60
2023-01-01T14:16:03.221Z,13.70
2023-01-01T14:18:51.789Z,13.70
2023-01-01T14:21:24.427Z,13.60
2023-01-01T14:23:59.167Z,13.60
2023-01-01T14:26:28.557Z,13.60
2023-01-01T14:28:57.367Z,13.40
2023-01-01T14:31:31.750Z,13.40
2023-01-01T14:33:58.886Z,13.30
2023-01-01T14:36:29.300Z,13.20
2023-01-01T14:39:00.400Z,13.20
2023-01-01T14:41:37.275Z,13.10
2023-01-01T14:44:13.433Z,13.10
2023-01-01T14:46:43.829Z,13.10
2023-01-01T14:49:24.009Z,13.10
2023-01-01T14:51:57.612Z,13.00
2023-01-01T14:54:31.209Z,12.80
2023-01-01T14:56:59.244Z,12.70
2023-01-01T14:59:31.924Z,12.60
2023-01-01T15:02:23.374Z,12.60
2023-01-01T15:04:51.075Z,12.50
2023-01-01T15:07:25.483Z,12.40
2023-01-01T15:09:54.621Z,12.40
2023-01-01T15:12:22.791Z,12.10
2023-01-01T15:14:52.469Z,11.90
2023-01-01T15:17:25.429Z,11.80
2023-01-01T15:20:07.527Z,11.60
2023-01-01T15:22:39.238Z,11.40
2023-01-01T15:25:12.066Z,11.20
2023-01-01T15:27:39.142Z,11.10
2023-01-01T15:30:13.586Z,11.00
2023-01-01T15:32:41.548Z,10.90
2023-01-01T15:35:32.008Z,10.70
2023-01-01T15:38:02.255Z,10.70
2023-01-01T15:40:29.188Z,10.60
2023-01-01T15:42:58.816Z,10.60
2023-01-01T15:45:25.859Z,10.50
2023-01-01T15:47:58.054Z,10.40
2023-01-01T15:50:26.970Z,10.40
2023-01-01T15:52:58.301Z,10.30
2023-01-01T15:55:29.167Z,10.20
2023-01-01T15:57:57.209Z,10.00
2023-01-01T16:00:35.086Z,10.00
2023-01-01T16:03:21.232Z,9.80
2023-01-01T16:05:51.929Z,9.70
2023-01-01T16:08:20.218Z,9.60
2023-01-01T16:10:48.669Z,9.40
2023-01-01T16:13:15.816Z,9.30
2023-01-01T16:15:57.000Z,9.20
2023-01-01T16:18:29.122Z,9.10
2023-01-01T16:21:00.145Z,9.00
2023-01-01T16:23:27.174Z,8.90
2023-01-01T16:25:54.241Z,8.80
2023-01-01T16:28:21.397Z,8.70
2023-01-01T16:30:48.428Z,8.70
2023-01-01T16:33:18.112Z,8.60
2023-01-01T16:35:45.465Z,8.70
2023-01-01T16:38:12.669Z,8.80
2023-01-01T16:40:39.816Z,8.90
2023-01-01T16:43:09.865Z,9.00
2023-01-01T16:45:36.824Z,9.20
2023-01-01T16:48:03.966Z,9.30
2023-01-01T16:50:30.943Z,9.50
2023-01-01T16:52:57.975Z,9.60
2023-01-01T16:55:24.967Z,9.70
2023-01-01T16:58:02.674Z,9.70
2023-01-01T17:00:38.871Z,9.70
2023-01-01T17:03:06.270Z,9.70
2023-01-01T17:05:40.496Z,9.70
2023-01-01T17:08:10.978Z,9.80
2023-01-01T17:10:37.925Z,9.70
2023-01-01T17:13:04.941Z,9.80
2023-01-01T17:15:32.494Z,9.70
2023-01-01T17:17:59.822Z,9.60
2023-01-01T17:20:28.218Z,9.60
2023-01-01T17:22:55.191Z,9.40
2023-01-01T17:25:22.521Z,9.50
2023-01-01T17:27:49.537Z,9.50
2023-01-01T17:30:17.198Z,9.60
2023-01-01T17:32:44.203Z,9.60
2023-01-01T17:35:11.289Z,9.60
2023-01-01T17:37:38.370Z,9.60
2023-01-01T17:40:05.838Z,9.60
2023-01-01T17:42:34.695Z,9.60
2023-01-01T17:45:01.639Z,9.60
2023-01-01T17:47:32.977Z,9.60
2023-01-01T17:50:00.492Z,9.60
2023-01-01T17:52:27.665Z,9.60
2023-01-01T17:54:54.969Z,9.60
2023-01-01T17:57:21.978Z,9.80
2023-01-01T17:59:49.034Z,9.90
2023-01-01T18:02:16.205Z,10.00
2023-01-01T18:04:43.464Z,10.10
2023-01-01T18:07:10.425Z,10.10
2023-01-01T18:09:38.478Z,10.10
2023-01-01T18:12:06.248Z,10.20
2023-01-01T18:14:33.234Z,10.10
2023-01-01T18:17:01.322Z,10.00
2023-01-01T18:19:28.645Z,9.90
2023-01-01T18:21:55.664Z,9.80
2023-01-01T18:24:22.637Z,9.80
2023-01-01T18:26:49.833Z,9.70
2023-01-01T18:29:16.939Z,9.60
2023-01-01T18:31:44.087Z,9.70
2023-01-01T18:34:11.514Z,9.80
2023-01-01T18:36:39.576Z,9.80
2023-01-01T18:39:30.957Z,10.00
2023-01-01T18:41:57.896Z,10.00
2023-01-01T18:44:26.593Z,10.00
2023-01-01T18:47:05.367Z,10.10
2023-01-01T18:49:37.074Z,10.20
2023-01-01T18:52:09.699Z,10.30
2023-01-01T18:54:36.677Z,10.30
2023-01-01T18:57:27.053Z,10.40
2023-01-01T18:59:59.552Z,10.40
2023-01-01T19:02:43.079Z,10.40
2023-01-01T19:05:24.678Z,10.40
2023-01-01T19:08:06.634Z,10.40
2023-01-01T19:10:47.087Z,10.40
2023-01-01T19:13:28.870Z,10.40
2023-01-01T19:16:01.123Z,10.40
2023-01-01T19:18:32.748Z,10.30
2023-01-01T19:21:22.656Z,10.20
2023-01-01T19:23:55.082Z,10.20
2023-01-01T19:26:26.541Z,10.10
2023-01-01T19:28:59.920Z,10.00
2023-01-01T19:31:26.916Z,9.90
2023-01-01T19:33:54.025Z,9.90
2023-01-01T19:36:20.968Z,9.90
2023-01-01T19:38:47.947Z,9.90
2023-01-01T19:41:15.003Z,9.90
2023-01-01T19:43:41.948Z,9.90
2023-01-01T19:46:09.038Z,9.80
2023-01-01T19:48:36.215Z,9.80
2023-01-01T19:51:03.301Z,9.80
2023-01-01T19:53:30.336Z,9.70
2023-01-01T19:55:57.293Z,9.70
2023-01-01T19:58:24.586Z,9.50
2023-01-01T20:00:51.829Z,9.50
2023-01-01T20:03:52.373Z,9.40
2023-01-01T20:06:07.405Z,9.30
2023-01-01T20:08:35.012Z,9.30
2023-01-01T20:11:02.063Z,9.30
2023-01-01T20:13:29.096Z,9.40
2023-01-01T20:15:56.265Z,9.40
2023-01-01T20:18:23.265Z,9.50
2023-01-01T20:21:08.991Z,9.60
2023-01-01T20:23:36.019Z,9.60
2023-01-01T20:26:04.248Z,9.80
2023-01-01T20:28:49.838Z,9.80
2023-01-01T20:31:16.917Z,9.80
2023-01-01T20:33:44.699Z,9.80
2023-01-01T20:36:30.189Z,9.80
2023-01-01T20:38:57.171Z,9.70
2023-01-01T20:41:24.161Z,9.60
2023-01-01T20:43:51.721Z,9.60
2023-01-01T20:46:18.716Z,9.50
2023-01-01T20:48:45.721Z,9.40
2023-01-01T20:51:12.721Z,9.30
2023-01-01T20:53:39.708Z,9.40
2023-01-01T20:56:06.987Z,9.30
2023-01-01T20:58:34.001Z,9.30
2023-01-01T21:01:01.192Z,9.30
2023-01-01T21:03:28.354Z,9.20
2023-01-01T21:05:55.526Z,9.30
2023-01-01T21:08:22.515Z,9.30
2023-01-01T21:10:49.488Z,9.30
2023-01-01T21:13:16.513Z,9.30
2023-01-01T21:15:43.533Z,9.20
2023-01-01T21:18:11.991Z,9.20
2023-01-01T21:20:44.693Z,9.20
2023-01-01T21:23:19.665Z,9.30
2023-01-01T21:25:51.400Z,9.30
2023-01-01T21:28:19.162Z,9.40
2023-01-01T21:30:52.199Z,9.30
2023-01-01T21:33:31.330Z,9.30
2023-01-01T21:36:02.013Z,9.30
2023-01-01T21:38:32.511Z,9.40
2023-01-01T21:41:01.052Z,9.40
2023-01-01T21:43:35.841Z,9.40
2023-01-01T21:46:06.015Z,9.40
2023-01-01T21:48:42.632Z,9.40
2023-01-01T21:51:28.617Z,9.30
2023-01-01T21:54:14.693Z,9.30
2023-01-01T21:56:43.862Z,9.30
2023-01-01T21:59:33.047Z,9.30
2023-01-01T22:02:06.147Z,9.20
2023-01-01T22:04:40.623Z,9.20
2023-01-01T22:10:17.244Z,9.10
2023-01-01T22:12:44.929Z,9.20
2023-01-01T22:15:31.283Z,9.20
2023-01-01T22:18:00.709Z,9.20
2023-01-01T22:20:31.874Z,9.20
2023-01-01T22:23:04.939Z,9.00
2023-01-01T22:25:32.959Z,8.80
2023-01-01T22:28:14.899Z,8.60
2023-01-01T22:30:43.298Z,8.40
2023-01-01T22:33:25.976Z,8.30
2023-01-01T22:35:56.272Z,8.40
2023-01-01T22:38:29.801Z,8.50
2023-01-01T22:40:56.792Z,8.50
2023-01-01T22:43:31.923Z,8.60
2023-01-01T22:46:00.209Z,8.50
2023-01-01T22:48:36.279Z,8.40
2023-01-01T22:51:27.455Z,8.30
2023-01-01T22:53:54.470Z,8.20
2023-01-01T22:56:21.609Z,8.00
2023-01-01T22:58:53.227Z,8.00
2023-01-01T23:01:23.934Z,8.00
2023-01-01T23:03:51.094Z,8.00
2023-01-01T23:06:19.368Z,8.00
2023-01-01T23:08:47.019Z,8.10
2023-01-01T23:11:14.117Z,8.20
2023-01-01T23:13:59.758Z,8.10
2023-01-01T23:16:26.868Z,8.00
2023-01-01T23:18:53.810Z,8.00
2023-01-01T23:21:26.987Z,8.00
2023-01-01T23:23:57.614Z,7.90
2023-01-01T23:26:25.509Z,7.70
2023-01-01T23:28:54.526Z,7.70
2023-01-01T23:31:25.563Z,7.50
2023-01-01T23:33:54.290Z,7.40
2023-01-01T23:36:21.642Z,7.40
2023-01-01T23:38:48.583Z,7.40
2023-01-01T23:41:15.557Z,7.40
2023-01-01T23:43:43.773Z,7.50
2023-01-01T23:46:12.842Z,7.50
2023-01-01T23:48:41.242Z,7.60
2023-01-01T23:51:08.317Z,7.50
2023-01-01T23:53:35.361Z,7.40
2023-01-01T23:56:02.379Z,7.30
2023-01-01T23:58:29.320Z,7.40
